Time;durP1;ratioP1;P1;durP2;ratioP2;P2;SDS_P1;SDS_P2;PMS_P1;PMS_P2;Temp;Humidity;BMP_temperature;BMP_pressure;BME280_temperature;BME280_humidity;BME280_pressure;Samples;Min_cycle;Max_cycle;Signal;HPM_P1;HPM_P2
2021/09/07 02:21:37;;;;;;;;;;;5.30;88.40;;;;;;5113267;27;19912;-94
2021/09/07 02:24:03;;;;;;;;;;;5.20;90.40;;;;;;5145590;27;20003;-95
2021/09/07 02:26:28;;;;;;;;;;;5.30;91.60;;;;;;5110974;28;19915;-95
2021/09/07 02:28:54;;;;;;;;;;;5.40;92.40;;;;;;5110983;28;19908;-91
2021/09/07 02:31:19;;;;;;;;;;;5.50;93.00;;;;;;5110962;28;19915;-93
2021/09/07 02:33:45;;;;;;;;;;;5.70;93.30;;;;;;5111010;28;19955;-93
2021/09/07 02:36:10;;;;;;;;;;;5.80;93.60;;;;;;5108583;28;19908;-92
2021/09/07 02:38:36;;;;;;;;;;;5.90;93.70;;;;;;5090490;28;19958;-92
2021/09/07 02:41:02;;;;;;;;;;;6.00;93.80;;;;;;5090048;28;19983;-91
2021/09/07 17:09:24;;;;;;;;;;;13.30;62.10;;;;;;5111659;27;19916;-88
2021/09/07 17:11:50;;;;;;;;;;;13.00;64.90;;;;;;5112345;28;20420;-89
2021/09/07 17:14:15;;;;;;;;;;;12.90;67.00;;;;;;5102642;28;19932;-88
2021/09/07 17:16:41;;;;;;;;;;;12.90;68.30;;;;;;5097136;28;19958;-89
2021/09/07 17:19:07;;;;;;;;;;;12.90;69.10;;;;;;5091487;28;19912;-88
2021/09/07 17:21:33;;;;;;;;;;;13.00;69.70;;;;;;5089976;28;20321;-88
2021/09/07 17:23:59;;;;;;;;;;;13.10;70.00;;;;;;5091510;28;20007;-89
2021/09/07 17:26:24;;;;;;;;;;;13.20;70.10;;;;;;5091288;28;19912;-88
2021/09/07 17:28:50;;;;;;;;;;;13.20;70.20;;;;;;5090116;28;19923;-88
2021/09/07 17:31:25;;;;;;;;;;;13.30;70.20;;;;;;5089666;28;19915;-88
2021/09/07 17:44:16;;;;;;;;;;;13.60;70.60;;;;;;5068966;28;20111;-88
2021/09/07 17:46:42;;;;;;;;;;;13.70;70.80;;;;;;5085265;28;20348;-87
2021/09/07 17:49:07;;;;;;;;;;;13.60;70.90;;;;;;5089386;28;19909;-89
2021/09/07 17:51:33;;;;;;;;;;;13.60;71.20;;;;;;5123696;28;19920;-89
2021/09/07 17:53:58;;;;;;;;;;;13.60;71.50;;;;;;5090895;28;19946;-89
2021/09/07 17:56:24;;;;;;;;;;;13.50;71.60;;;;;;5089549;28;20077;-88
2021/09/07 17:58:50;;;;;;;;;;;13.50;71.70;;;;;;5090752;28;20275;-88
2021/09/07 18:01:15;;;;;;;;;;;13.50;71.90;;;;;;5090812;28;19908;-89
2021/09/07 18:03:41;;;;;;;;;;;13.40;71.80;;;;;;5090683;28;19915;-89
2021/09/07 18:06:06;;;;;;;;;;;13.40;71.80;;;;;;5090764;28;19934;-89
2021/09/07 18:08:32;;;;;;;;;;;13.30;71.60;;;;;;5090115;28;19924;-88
2021/09/07 18:10:58;;;;;;;;;;;13.30;71.60;;;;;;5090494;28;19912;-88
2021/09/07 18:13:23;;;;;;;;;;;13.30;71.80;;;;;;5088776;28;19909;-89
2021/09/07 18:15:49;;;;;;;;;;;13.30;71.80;;;;;;5096725;28;19915;-88
2021/09/07 18:18:18;;;;;;;;;;;13.30;71.80;;;;;;5111038;28;19965;-88
2021/09/07 18:20:44;;;;;;;;;;;13.20;71.30;;;;;;5077974;28;20364;-88
2021/09/07 18:23:10;;;;;;;;;;;13.30;71.10;;;;;;5109513;28;19908;-88
2021/09/07 18:25:36;;;;;;;;;;;13.30;70.70;;;;;;5109431;28;19915;-88
2021/09/07 18:28:02;;;;;;;;;;;13.30;70.60;;;;;;5076114;28;19912;-88
2021/09/07 18:30:27;;;;;;;;;;;13.30;70.50;;;;;;5074998;28;19912;-88
2021/09/07 18:32:55;;;;;;;;;;;13.30;70.40;;;;;;5076048;28;20272;-88
2021/09/07 18:35:20;;;;;;;;;;;13.30;70.30;;;;;;5076154;28;19916;-88
2021/09/07 18:37:46;;;;;;;;;;;13.20;70.30;;;;;;5075366;28;20027;-88
2021/09/07 18:40:12;;;;;;;;;;;13.20;70.20;;;;;;5076879;28;19956;-88
2021/09/07 18:42:41;;;;;;;;;;;13.20;70.50;;;;;;5076294;28;19913;-90
2021/09/07 18:45:10;;;;;;;;;;;13.20;70.70;;;;;;5075228;28;19916;-88
2021/09/07 18:47:36;;;;;;;;;;;13.10;70.80;;;;;;5075168;28;20378;-87
2021/09/07 18:50:02;;;;;;;;;;;13.00;71.00;;;;;;5075147;28;20038;-88
2021/09/07 18:52:28;;;;;;;;;;;13.00;71.10;;;;;;5075577;28;20376;-89
2021/09/07 18:54:53;;;;;;;;;;;13.00;71.20;;;;;;5076109;28;19920;-88
2021/09/07 18:57:19;;;;;;;;;;;12.90;70.90;;;;;;5074870;28;19913;-89
2021/09/07 18:59:44;;;;;;;;;;;12.90;70.60;;;;;;5108822;28;19926;-88
2021/09/07 19:02:10;;;;;;;;;;;13.00;70.70;;;;;;5075797;28;19963;-88
2021/09/07 19:04:35;;;;;;;;;;;12.90;70.80;;;;;;5074840;28;19908;-88
2021/09/07 19:07:01;;;;;;;;;;;12.90;70.80;;;;;;5108096;28;19913;-88
2021/09/07 19:09:26;;;;;;;;;;;12.90;71.00;;;;;;5075507;28;19912;-88
2021/09/07 19:11:52;;;;;;;;;;;12.80;71.20;;;;;;5074675;28;19952;-89
2021/09/07 19:14:17;;;;;;;;;;;12.70;71.20;;;;;;5074611;28;19962;-89
2021/09/07 19:16:43;;;;;;;;;;;12.70;71.50;;;;;;5074575;28;19913;-88
2021/09/07 19:19:09;;;;;;;;;;;12.70;71.80;;;;;;5074504;28;19999;-91
2021/09/07 19:21:34;;;;;;;;;;;12.60;71.90;;;;;;5075758;28;19916;-88
2021/09/07 19:24:00;;;;;;;;;;;12.50;71.90;;;;;;5076018;28;19917;-89
2021/09/07 19:26:25;;;;;;;;;;;12.50;72.20;;;;;;5074765;28;19915;-92
2021/09/07 19:28:51;;;;;;;;;;;12.40;72.50;;;;;;5075648;28;20258;-91
2021/09/07 19:31:16;;;;;;;;;;;12.40;72.70;;;;;;5074621;28;19963;-90
2021/09/07 19:33:42;;;;;;;;;;;12.30;73.10;;;;;;5075537;28;20268;-90
2021/09/07 19:36:08;;;;;;;;;;;12.20;73.50;;;;;;5075482;28;19958;-90
2021/09/07 19:38:33;;;;;;;;;;;12.10;73.90;;;;;;5074145;28;19912;-91
2021/09/07 19:40:59;;;;;;;;;;;12.10;74.30;;;;;;5074122;28;20436;-90
2021/09/07 19:43:25;;;;;;;;;;;12.00;74.60;;;;;;5074085;28;19912;-90
2021/09/07 19:45:50;;;;;;;;;;;11.90;74.90;;;;;;5075327;28;19912;-90
2021/09/07 19:48:16;;;;;;;;;;;11.80;75.10;;;;;;5075193;28;19909;-91
2021/09/07 19:50:41;;;;;;;;;;;11.80;75.10;;;;;;5075476;28;19934;-90
2021/09/07 19:53:10;;;;;;;;;;;11.70;75.30;;;;;;5073890;28;19935;-90
2021/09/07 19:55:36;;;;;;;;;;;11.70;75.50;;;;;;5073807;28;19908;-90
2021/09/07 19:58:02;;;;;;;;;;;11.60;75.70;;;;;;5074992;28;19958;-90
2021/09/07 20:00:28;;;;;;;;;;;11.60;75.50;;;;;;5073695;28;19923;-90
2021/09/07 20:02:53;;;;;;;;;;;11.50;75.50;;;;;;5075217;28;19908;-91
2021/09/07 20:05:19;;;;;;;;;;;11.50;75.30;;;;;;5073635;28;20057;-91
2021/09/07 20:07:44;;;;;;;;;;;11.50;75.40;;;;;;5074638;28;19928;-91
2021/09/07 20:10:11;;;;;;;;;;;11.50;75.30;;;;;;5075102;28;19909;-91
2021/09/07 20:12:36;;;;;;;;;;;11.50;75.00;;;;;;5056894;28;19908;-91
2021/09/07 20:15:03;;;;;;;;;;;11.50;74.90;;;;;;5074719;28;20253;-90
